Time;durP1;ratioP1;P1;durP2;ratioP2;P2;SDS_P1;SDS_P2;PMS_P1;PMS_P2;Temp;Humidity;BMP_temperature;BMP_pressure;BME280_temperature;BME280_humidity;BME280_pressure;Samples;Min_cycle;Max_cycle;Signal;HPM_P1;HPM_P2
2022/03/15 00:00:58;;;;;;;20.95;10.73;;;6.80;99.90;;;;;;5073978;27;20361;-75
2022/03/15 00:03:24;;;;;;;20.83;11.10;;;6.80;99.90;;;;;;5062836;28;20018;-73
2022/03/15 00:05:50;;;;;;;19.75;10.40;;;6.80;99.90;;;;;;5094239;28;20047;-75
2022/03/15 00:08:20;;;;;;;19.88;10.65;;;6.80;99.90;;;;;;5093385;28;20352;-75
2022/03/15 00:10:48;;;;;;;23.02;10.35;;;6.70;99.90;;;;;;5091959;27;20008;-74
2022/03/15 00:13:15;;;;;;;17.90;10.38;;;6.70;99.90;;;;;;5076201;27;20047;-73
2022/03/15 00:15:42;;;;;;;21.85;11.32;;;6.70;99.90;;;;;;5075452;28;20024;-72
2022/03/15 00:18:09;;;;;;;20.42;10.98;;;6.70;99.90;;;;;;5093439;27;20029;-73
2022/03/15 00:20:36;;;;;;;19.58;10.82;;;6.70;99.90;;;;;;5091965;27;20032;-73
2022/03/15 00:23:03;;;;;;;21.03;11.17;;;6.60;99.90;;;;;;5080602;27;20020;-75
2022/03/15 00:25:30;;;;;;;16.67;9.70;;;6.70;99.90;;;;;;5080187;28;20023;-73
2022/03/15 00:27:57;;;;;;;17.73;10.45;;;6.70;99.90;;;;;;5084275;27;20386;-73
2022/03/15 00:30:25;;;;;;;18.83;9.73;;;6.70;99.90;;;;;;5062797;27;20020;-73
2022/03/15 00:32:52;;;;;;;18.10;9.82;;;6.70;99.90;;;;;;5063482;27;20496;-73
2022/03/15 00:35:19;;;;;;;15.48;9.25;;;6.70;99.90;;;;;;5099643;27;20016;-75
2022/03/15 00:37:50;;;;;;;21.45;10.43;;;6.70;99.90;;;;;;5084528;27;20041;-73
2022/03/15 00:40:18;;;;;;;20.23;9.65;;;6.60;99.90;;;;;;5095715;27;20038;-73
2022/03/15 00:42:50;;;;;;;18.88;9.88;;;6.70;99.90;;;;;;5080507;27;20352;-73
2022/03/15 00:45:23;;;;;;;18.63;9.80;;;6.60;99.90;;;;;;5077169;27;20027;-73
2022/03/15 00:47:53;;;;;;;20.55;9.52;;;6.60;99.90;;;;;;5084459;27;20046;-73
2022/03/15 00:50:21;;;;;;;16.13;9.77;;;6.60;99.90;;;;;;5079374;28;20024;-73
2022/03/15 00:52:48;;;;;;;18.88;9.35;;;6.60;99.90;;;;;;5063173;28;20031;-75
2022/03/15 00:55:15;;;;;;;20.23;9.52;;;6.60;99.90;;;;;;5083498;27;20447;-72
2022/03/15 00:57:44;;;;;;;18.08;9.20;;;6.60;99.90;;;;;;5084404;27;20019;-72
2022/03/15 01:00:13;;;;;;;20.42;9.88;;;6.60;99.90;;;;;;5095260;27;20485;-75
2022/03/15 01:02:40;;;;;;;16.95;9.30;;;6.60;99.90;;;;;;5047474;28;20040;-74
2022/03/15 01:05:07;;;;;;;18.77;9.05;;;6.60;99.90;;;;;;5068322;28;20030;-74
2022/03/15 01:07:34;;;;;;;23.23;10.73;;;6.60;99.90;;;;;;5047734;28;20039;-74
2022/03/15 01:10:00;;;;;;;18.70;10.23;;;6.60;99.90;;;;;;5100883;27;20047;-74
2022/03/15 01:12:27;;;;;;;19.90;9.93;;;6.60;99.90;;;;;;5103820;27;20034;-74
2022/03/15 01:14:53;;;;;;;18.88;10.05;;;6.60;99.90;;;;;;5080450;28;20044;-74
2022/03/15 01:17:20;;;;;;;18.83;10.07;;;6.60;99.90;;;;;;5079474;28;20022;-74
2022/03/15 01:19:47;;;;;;;15.65;9.52;;;6.70;99.90;;;;;;5076877;27;20020;-74
2022/03/15 01:22:13;;;;;;;17.40;10.27;;;6.60;99.90;;;;;;5079772;28;20031;-74
2022/03/15 01:24:40;;;;;;;18.88;10.35;;;6.60;99.90;;;;;;5062576;27;20402;-72
2022/03/15 01:27:06;;;;;;;21.58;10.52;;;6.70;99.90;;;;;;5083022;27;20024;-72
2022/03/15 01:29:33;;;;;;;20.90;10.65;;;6.70;99.90;;;;;;5078825;27;20024;-72
2022/03/15 01:32:01;;;;;;;18.90;10.95;;;6.60;99.90;;;;;;5079067;28;20439;-74
2022/03/15 01:34:28;;;;;;;16.67;9.80;;;6.70;99.90;;;;;;5060397;27;20015;-74
2022/03/15 01:36:58;;;;;;;21.33;11.00;;;6.60;99.90;;;;;;5098915;27;20023;-75
2022/03/15 01:39:25;;;;;;;18.45;10.43;;;6.60;99.90;;;;;;5068931;27;20031;-74
2022/03/15 01:41:52;;;;;;;18.08;10.57;;;6.70;99.90;;;;;;5081382;28;20399;-77
2022/03/15 01:44:20;;;;;;;22.00;11.27;;;6.60;99.90;;;;;;5096763;27;20046;-73
2022/03/15 01:46:49;;;;;;;19.38;10.07;;;6.60;99.90;;;;;;5078985;28;20023;-75
2022/03/15 01:49:19;;;;;;;19.55;10.02;;;6.60;99.90;;;;;;5077133;27;20008;-72
2022/03/15 01:51:47;;;;;;;21.25;11.18;;;6.70;99.90;;;;;;5068871;28;20024;-72
2022/03/15 01:54:15;;;;;;;20.52;11.25;;;6.70;99.90;;;;;;5060459;27;20035;-72
2022/03/15 01:56:42;;;;;;;22.55;11.77;;;6.70;99.90;;;;;;5080511;28;20372;-73
2022/03/15 01:59:12;;;;;;;18.30;10.68;;;6.70;99.90;;;;;;5046284;28;20498;-74
2022/03/15 02:01:41;;;;;;;18.85;11.27;;;6.80;99.90;;;;;;5076077;28;20020;-75
2022/03/15 02:04:11;;;;;;;19.83;12.52;;;6.80;99.90;;;;;;5095625;27;20027;-72
2022/03/15 02:06:39;;;;;;;20.73;11.30;;;6.80;99.90;;;;;;5096111;27;20403;-72
2022/03/15 02:09:09;;;;;;;19.65;11.70;;;6.80;99.90;;;;;;5060600;28;20470;-74
2022/03/15 02:11:36;;;;;;;23.30;11.90;;;6.90;99.90;;;;;;5095098;27;20028;-74
2022/03/15 02:14:04;;;;;;;20.38;12.13;;;6.90;99.90;;;;;;5093744;28;20020;-74
2022/03/15 02:16:32;;;;;;;20.48;11.63;;;6.90;99.90;;;;;;5076241;28;20020;-74
2022/03/15 02:19:00;;;;;;;17.33;11.05;;;6.90;99.90;;;;;;5076201;28;20031;-74
2022/03/15 02:21:27;;;;;;;25.10;12.77;;;6.90;99.90;;;;;;5079529;28;20039;-74
2022/03/15 02:23:54;;;;;;;22.15;13.02;;;6.90;99.90;;;;;;5076450;28;20032;-74
2022/03/15 02:26:21;;;;;;;22.08;13.10;;;6.90;99.90;;;;;;5076556;28;20352;-74
2022/03/15 02:28:47;;;;;;;21.45;13.60;;;6.90;99.90;;;;;;5097125;27;20470;-72
2022/03/15 02:31:14;;;;;;;21.25;12.80;;;6.80;99.90;;;;;;5062458;28;20027;-73
2022/03/15 02:33:41;;;;;;;23.75;14.40;;;6.90;99.90;;;;;;5098450;27;20020;-72
2022/03/15 02:36:07;;;;;;;24.75;13.45;;;6.90;99.90;;;;;;5097121;27;20016;-75
2022/03/15 02:38:34;;;;;;;23.88;14.60;;;6.90;99.90;;;;;;5061380;28;20016;-74
2022/03/15 02:41:00;;;;;;;26.42;15.73;;;6.90;99.90;;;;;;5073228;28;20027;-73
2022/03/15 02:43:27;;;;;;;26.15;15.00;;;6.90;99.90;;;;;;5093638;28;20023;-75
2022/03/15 02:45:53;;;;;;;25.75;14.88;;;6.90;99.90;;;;;;5078863;28;20391;-75
2022/03/15 02:48:20;;;;;;;26.90;14.45;;;6.90;99.90;;;;;;5078153;28;20382;-72
2022/03/15 02:50:47;;;;;;;24.50;15.38;;;6.90;99.90;;;;;;5065088;28;20035;-72
2022/03/15 02:53:14;;;;;;;26.73;15.45;;;6.80;99.90;;;;;;5057115;28;20410;-72
2022/03/15 02:55:40;;;;;;;24.42;15.95;;;6.90;99.90;;;;;;5095255;28;20039;-72
2022/03/15 02:58:07;;;;;;;23.85;15.45;;;6.90;99.90;;;;;;5100968;28;20024;-72
2022/03/15 03:00:34;;;;;;;24.63;14.73;;;6.90;99.90;;;;;;5102480;27;21189;-72
2022/03/15 03:03:02;;;;;;;29.15;15.80;;;6.80;99.90;;;;;;5095180;28;20016;-72
2022/03/15 03:05:29;;;;;;;25.90;15.20;;;6.80;99.90;;;;;;5093444;28;20101;-72
2022/03/15 03:07:55;;;;;;;26.52;15.52;;;6.80;99.90;;;;;;5089389;28;20047;-73
2022/03/15 03:10:22;;;;;;;24.58;14.85;;;6.80;99.90;;;;;;5098909;27;21119;-73
2022/03/15 03:12:49;;;;;;;27.00;16.15;;;6.70;99.90;;;;;;5108367;27;20038;-73
2022/03/15 03:15:19;;;;;;;22.95;16.00;;;6.80;99.90;;;;;;5105613;27;20379;-73
2022/03/15 03:17:46;;;;;;;23.63;16.33;;;6.80;99.90;;;;;;5069152;28;20031;-73
2022/03/15 03:20:18;;;;;;;25.38;15.63;;;6.70;99.90;;;;;;5079104;28;20042;-72
2022/03/15 03:22:46;;;;;;;;;;;6.70;99.90;;;;;;5097666;28;20035;-72
2022/03/15 03:25:12;;;;;;;20.90;14.18;;;6.70;99.90;;;;;;5060163;28;19908;-72
2022/03/15 03:27:39;;;;;;;24.05;14.32;;;6.70;99.90;;;;;;5077406;28;20352;-72
2022/03/15 03:30:06;;;;;;;23.95;14.15;;;6.70;99.90;;;;;;5093965;28;20009;-73
2022/03/15 03:32:32;;;;;;;24.65;14.45;;;6.60;99.90;;;;;;5077317;28;20012;-72
2022/03/15 03:35:04;;;;;;;22.13;14.30;;;6.70;99.90;;;;;;5057209;28;20055;-72
2022/03/15 03:37:32;;;;;;;23.88;14.52;;;6.70;99.90;;;;;;5097266;28;20053;-72
2022/03/15 03:39:59;;;;;;;25.17;14.57;;;6.70;99.90;;;;;;5095096;28;20038;-72
2022/03/15 03:42:26;;;;;;;21.23;13.65;;;6.70;99.90;;;;;;5078459;28;20012;-73
2022/03/15 03:44:53;;;;;;;23.52;13.52;;;6.70;99.90;;;;;;5080014;28;20028;-73
2022/03/15 03:47:19;;;;;;;26.40;14.40;;;6.70;99.90;;;;;;5078764;28;20533;-72
2022/03/15 03:49:46;;;;;;;21.83;14.95;;;6.60;99.90;;;;;;5093913;28;20012;-72
2022/03/15 03:52:12;;;;;;;24.33;14.93;;;6.60;99.90;;;;;;5095912;28;20023;-72
2022/03/15 03:54:39;;;;;;;24.02;14.52;;;6.70;99.90;;;;;;5092424;28;20043;-72
2022/03/15 03:57:05;;;;;;;23.88;15.75;;;6.70;99.90;;;;;;5077376;28;20016;-72
2022/03/15 03:59:32;;;;;;;26.85;15.07;;;6.60;99.90;;;;;;5075107;28;20023;-73
2022/03/15 04:01:58;;;;;;;30.33;17.10;;;6.70;99.90;;;;;;5078442;28;20028;-72
2022/03/15 04:04:26;;;;;;;29.70;16.75;;;6.70;99.90;;;;;;5075864;28;20031;-72
2022/03/15 04:06:54;;;;;;;28.58;17.00;;;6.70;99.90;;;;;;5060335;28;20422;-72
2022/03/15 04:09:20;;;;;;;29.08;16.00;;;6.70;99.90;;;;;;5073011;28;20020;-72
2022/03/15 04:11:47;;;;;;;26.45;15.38;;;6.60;99.90;;;;;;5075485;28;20455;-72
2022/03/15 04:14:15;;;;;;;24.05;14.77;;;6.60;99.90;;;;;;5037628;28;20047;-72
2022/03/15 04:16:42;;;;;;;25.20;14.88;;;6.70;99.90;;;;;;5076410;28;20033;-72
2022/03/15 04:19:09;;;;;;;25.60;15.70;;;6.60;99.90;;;;;;5075012;28;20042;-72
2022/03/15 04:21:36;;;;;;;24.73;14.75;;;6.60;99.90;;;;;;5073006;28;20475;-72
2022/03/15 04:24:02;;;;;;;25.13;15.25;;;6.60;99.90;;;;;;5072583;28;20024;-72
2022/03/15 04:26:29;;;;;;;24.95;14.35;;;6.60;99.90;;;;;;5073876;28;20016;-72
2022/03/15 04:28:56;;;;;;;26.05;14.90;;;6.60;99.90;;;;;;5076660;28;20020;-73
2022/03/15 04:31:22;;;;;;;20.75;13.18;;;6.60;99.90;;;;;;5073505;28;20024;-72
2022/03/15 04:33:49;;;;;;;18.98;12.48;;;6.60;99.90;;;;;;5073548;28;20800;-75
2022/03/15 04:36:16;;;;;;;22.77;12.57;;;6.60;99.90;;;;;;5074575;28;20470;-75
2022/03/15 04:38:47;;;;;;;18.80;12.63;;;6.60;99.90;;;;;;5075444;28;20103;-75
2022/03/15 04:41:13;;;;;;;20.30;12.48;;;6.60;99.90;;;;;;5061390;28;20044;-75
2022/03/15 04:43:39;;;;;;;22.45;13.25;;;6.60;99.90;;;;;;5076490;28;20031;-75
2022/03/15 04:46:07;;;;;;;16.98;11.48;;;6.60;99.90;;;;;;5080966;28;20008;-75
2022/03/15 04:48:33;;;;;;;19.75;11.82;;;6.60;99.90;;;;;;5078483;28;20036;-75
2022/03/15 04:51:05;;;;;;;18.13;11.48;;;6.60;99.90;;;;;;5078320;28;20023;-75
2022/03/15 04:53:32;;;;;;;18.75;12.50;;;6.60;99.90;;;;;;5080028;28;20047;-75
2022/03/15 04:55:58;;;;;;;16.15;10.27;;;6.60;99.90;;;;;;5080473;28;20028;-75
2022/03/15 04:58:25;;;;;;;18.20;11.80;;;6.70;99.90;;;;;;5078722;28;20035;-75
2022/03/15 05:00:52;;;;;;;16.77;11.18;;;6.60;99.90;;;;;;5075503;28;20028;-73
2022/03/15 05:03:18;;;;;;;18.65;11.18;;;6.60;99.90;;;;;;5058892;28;20023;-72
2022/03/15 05:05:45;;;;;;;19.63;10.45;;;6.60;99.90;;;;;;5077177;28;20032;-72
2022/03/15 05:08:12;;;;;;;22.13;11.25;;;6.60;99.90;;;;;;5061762;28;20052;-72
2022/03/15 05:13:25;;;;;;;16.30;10.45;;;6.60;99.90;;;;;;5075726;28;20456;-73
2022/03/15 05:15:52;;;;;;;17.75;10.70;;;6.60;99.90;;;;;;5076900;28;20456;-72
2022/03/15 05:18:20;;;;;;;16.48;11.07;;;6.60;99.90;;;;;;5079908;28;20051;-72
2022/03/15 05:20:46;;;;;;;20.27;10.82;;;6.60;99.90;;;;;;5079033;28;20025;-72
2022/03/15 05:23:13;;;;;;;15.70;10.15;;;6.60;99.90;;;;;;5076733;28;20678;-72
2022/03/15 05:25:39;;;;;;;17.17;10.68;;;6.60;99.90;;;;;;5076477;28;20027;-72
2022/03/15 05:28:09;;;;;;;18.08;11.35;;;6.60;99.90;;;;;;5077802;28;20036;-72
2022/03/15 05:30:37;;;;;;;19.70;10.65;;;6.60;99.90;;;;;;5075284;28;20024;-73
2022/03/15 05:33:04;;;;;;;18.70;10.63;;;6.60;99.90;;;;;;5058018;28;20035;-72
2022/03/15 05:35:34;;;;;;;14.20;9.88;;;6.60;99.90;;;;;;5076758;28;20032;-72
2022/03/15 05:38:04;;;;;;;15.55;10.48;;;6.60;99.90;;;;;;5076975;28;20024;-73
2022/03/15 05:40:31;;;;;;;17.45;11.10;;;6.60;99.90;;;;;;5076723;28;20025;-72
2022/03/15 05:42:58;;;;;;;13.98;9.93;;;6.60;99.90;;;;;;5077822;28;20035;-72
2022/03/15 05:45:27;;;;;;;17.58;10.57;;;6.60;99.90;;;;;;5077305;28;20044;-73
2022/03/15 05:47:54;;;;;;;23.88;11.80;;;6.60;99.90;;;;;;5077741;28;20032;-72
2022/03/15 05:50:21;;;;;;;19.50;11.77;;;6.60;99.90;;;;;;5076009;28;20028;-73
2022/03/15 05:52:47;;;;;;;17.95;11.70;;;6.60;99.90;;;;;;5057635;28;20039;-73
2022/03/15 05:55:13;;;;;;;21.67;11.98;;;6.60;99.90;;;;;;5076209;28;20031;-72
2022/03/15 05:57:40;;;;;;;24.65;14.32;;;6.60;99.90;;;;;;5078166;28;20028;-73
2022/03/15 06:00:08;;;;;;;22.70;14.73;;;6.60;99.90;;;;;;5074754;28;20028;-72
2022/03/15 06:02:43;;;;;;;26.48;14.40;;;6.70;99.90;;;;;;5071948;28;20028;-72
2022/03/15 06:05:10;;;;;;;19.65;13.07;;;6.70;99.90;;;;;;5076011;28;20024;-74
2022/03/15 06:07:43;;;;;;;20.63;12.02;;;6.70;99.90;;;;;;5076761;28;20044;-73
2022/03/15 06:10:10;;;;;;;18.88;11.43;;;6.70;99.90;;;;;;5076047;28;20027;-72
2022/03/15 06:12:39;;;;;;;19.77;11.98;;;6.60;99.90;;;;;;5074792;28;20475;-73
2022/03/15 06:15:06;;;;;;;23.98;13.70;;;6.70;99.90;;;;;;5076580;28;20020;-72
2022/03/15 06:17:42;;;;;;;20.05;13.38;;;6.70;99.90;;;;;;5077279;28;20024;-72
2022/03/15 06:20:12;;;;;;;22.42;12.93;;;6.70;99.90;;;;;;5074983;28;20028;-72
2022/03/15 06:22:39;;;;;;;22.67;13.77;;;6.80;99.90;;;;;;5063553;28;20025;-72
2022/03/15 06:25:06;;;;;;;20.67;14.25;;;6.80;99.90;;;;;;5080456;28;20027;-73
2022/03/15 06:27:32;;;;;;;19.67;13.70;;;6.80;99.90;;;;;;5072985;28;20047;-72
2022/03/15 06:29:59;;;;;;;21.92;12.80;;;6.80;99.90;;;;;;5075168;28;20020;-74
2022/03/15 06:32:26;;;;;;;19.88;12.48;;;6.80;99.90;;;;;;5078561;28;20036;-74
2022/03/15 06:34:52;;;;;;;20.55;11.68;;;6.80;99.90;;;;;;5081151;28;20049;-72
2022/03/15 06:37:20;;;;;;;19.73;13.07;;;6.90;99.90;;;;;;5080065;28;20055;-71
2022/03/15 06:39:46;;;;;;;17.30;10.95;;;6.90;99.90;;;;;;5074533;28;20055;-73
2022/03/15 06:42:12;;;;;;;16.30;10.57;;;6.90;99.90;;;;;;5076979;28;20019;-73
2022/03/15 06:44:43;;;;;;;14.60;10.63;;;6.90;99.90;;;;;;5074385;28;20033;-73
2022/03/15 06:47:10;;;;;;;18.38;12.07;;;6.90;99.90;;;;;;5075741;28;20040;-73
2022/03/15 06:49:37;;;;;;;18.45;11.40;;;6.90;99.90;;;;;;5074548;28;20095;-73
2022/03/15 06:52:04;;;;;;;24.83;14.30;;;7.00;99.90;;;;;;5070261;28;20020;-72
2022/03/15 06:54:30;;;;;;;18.27;12.68;;;7.00;99.90;;;;;;5077580;28;20494;-72
2022/03/15 06:56:57;;;;;;;22.10;13.77;;;7.10;99.90;;;;;;5079499;28;20012;-73
2022/03/15 06:59:24;;;;;;;23.25;14.23;;;7.10;99.90;;;;;;5072548;28;20597;-73
2022/03/15 07:01:50;;;;;;;19.67;12.43;;;7.10;99.90;;;;;;5076853;28;20016;-73
2022/03/15 07:04:17;;;;;;;17.60;12.23;;;7.10;99.90;;;;;;5076101;28;20036;-73
2022/03/15 07:06:44;;;;;;;23.10;13.15;;;7.20;99.90;;;;;;5081928;28;20056;-72
2022/03/15 07:09:11;;;;;;;17.30;12.38;;;7.20;99.90;;;;;;5098526;28;20105;-72
2022/03/15 07:11:38;;;;;;;19.92;12.10;;;7.20;99.90;;;;;;5076830;28;20020;-72
2022/03/15 07:14:05;;;;;;;17.70;12.30;;;7.30;99.90;;;;;;5094094;27;20034;-73
2022/03/15 07:16:32;;;;;;;19.48;13.52;;;7.30;99.90;;;;;;5081211;28;20031;-73
2022/03/15 07:18:58;;;;;;;24.95;15.10;;;7.30;99.90;;;;;;5096504;27;20038;-76
2022/03/15 07:21:25;;;;;;;20.30;14.20;;;7.40;99.90;;;;;;5078055;28;20467;-74
2022/03/15 07:23:51;;;;;;;22.90;12.57;;;7.30;99.90;;;;;;5066409;28;20027;-75
2022/03/15 07:26:17;;;;;;;19.73;13.35;;;7.40;99.90;;;;;;5095201;28;20040;-72
2022/03/15 07:28:44;;;;;;;19.00;12.90;;;7.40;99.90;;;;;;5096208;27;20049;-73
2022/03/15 07:31:10;;;;;;;18.75;12.18;;;7.50;99.90;;;;;;5096880;28;20567;-73
2022/03/15 07:33:37;;;;;;;20.30;13.50;;;7.40;99.90;;;;;;5075509;28;20032;-73
2022/03/15 07:36:03;;;;;;;17.48;12.68;;;7.50;99.90;;;;;;5041136;28;20490;-73
2022/03/15 07:38:32;;;;;;;15.95;11.50;;;7.50;99.90;;;;;;5097210;28;20506;-73
2022/03/15 07:41:01;;;;;;;19.80;11.90;;;7.60;99.90;;;;;;5077858;28;20020;-73
2022/03/15 07:43:28;;;;;;;22.67;13.52;;;7.60;99.90;;;;;;5094862;28;20043;-72
2022/03/15 07:45:54;;;;;;;18.63;11.70;;;7.60;99.90;;;;;;5082378;28;20042;-73
2022/03/15 07:48:21;;;;;;;18.77;11.90;;;7.60;99.90;;;;;;5094604;28;20052;-72
2022/03/15 07:50:49;;;;;;;17.15;11.45;;;7.70;99.90;;;;;;5092946;28;20027;-74
2022/03/15 07:53:15;;;;;;;18.52;12.00;;;7.70;99.90;;;;;;5092717;28;20020;-73
2022/03/15 07:55:42;;;;;;;19.90;11.70;;;7.70;99.90;;;;;;5094333;28;20024;-73
2022/03/15 07:58:08;;;;;;;25.45;12.00;;;7.80;99.90;;;;;;5079086;28;20024;-74
2022/03/15 08:00:35;;;;;;;18.42;11.80;;;7.80;99.90;;;;;;5095858;28;20027;-74
2022/03/15 08:03:01;;;;;;;19.23;11.73;;;7.90;99.90;;;;;;5094472;28;20702;-74
2022/03/15 08:05:28;;;;;;;23.20;12.40;;;7.90;99.90;;;;;;5055854;28;20039;-74
2022/03/15 08:07:56;;;;;;;19.83;12.80;;;7.90;99.90;;;;;;5092930;28;20043;-74
2022/03/15 08:10:22;;;;;;;19.83;11.20;;;8.00;99.90;;;;;;5075732;28;20031;-74
2022/03/15 08:12:49;;;;;;;22.40;12.27;;;8.00;99.90;;;;;;5076944;28;20020;-74
2022/03/15 08:15:15;;;;;;;18.98;10.88;;;8.10;99.90;;;;;;5078032;28;20023;-74
2022/03/15 08:17:42;;;;;;;16.02;10.13;;;8.10;99.90;;;;;;5080196;28;20038;-74
2022/03/15 08:20:14;;;;;;;16.83;10.23;;;8.10;99.90;;;;;;5083853;27;20030;-74
2022/03/15 08:22:40;;;;;;;16.98;9.85;;;8.20;99.90;;;;;;5085615;27;20448;-74
2022/03/15 08:25:07;;;;;;;13.60;8.30;;;8.20;99.90;;;;;;5100678;27;20036;-74
2022/03/15 08:27:34;;;;;;;13.70;9.48;;;8.30;99.90;;;;;;5101394;27;20036;-74
2022/03/15 08:30:00;;;;;;;21.95;11.18;;;8.40;99.90;;;;;;5082110;27;20028;-73
2022/03/15 08:32:27;;;;;;;17.63;11.32;;;8.40;99.90;;;;;;5101149;27;20471;-73
2022/03/15 08:34:54;;;;;;;17.63;10.88;;;8.40;99.90;;;;;;5081698;27;20035;-74
2022/03/15 08:37:21;;;;;;;18.70;11.98;;;8.50;99.90;;;;;;5083335;27;20031;-73
2022/03/15 08:39:48;;;;;;;17.95;9.45;;;8.50;99.90;;;;;;5081607;27;20474;-74
2022/03/15 08:42:14;;;;;;;19.02;10.10;;;8.60;99.90;;;;;;5083322;28;20030;-74
2022/03/15 08:44:41;;;;;;;17.67;10.68;;;8.60;99.90;;;;;;5088066;27;20362;-73
2022/03/15 08:47:08;;;;;;;16.23;11.10;;;8.60;99.90;;;;;;5080003;28;20374;-73
2022/03/15 08:49:34;;;;;;;15.98;10.30;;;8.70;99.90;;;;;;5081339;28;20047;-74
2022/03/15 08:52:01;;;;;;;18.40;10.15;;;8.70;99.90;;;;;;5100747;27;20472;-74
2022/03/15 08:54:28;;;;;;;19.58;9.65;;;8.80;99.90;;;;;;5064980;28;20028;-73
2022/03/15 08:56:54;;;;;;;16.27;10.70;;;8.80;99.90;;;;;;5081185;28;20016;-73
2022/03/15 08:59:21;;;;;;;15.93;9.27;;;8.90;99.90;;;;;;5065842;27;20031;-73
2022/03/15 09:01:48;;;;;;;18.98;10.20;;;9.00;99.90;;;;;;5081547;27;20843;-73
2022/03/15 09:04:15;;;;;;;14.32;10.25;;;9.00;99.90;;;;;;5061606;28;20043;-73
2022/03/15 09:06:42;;;;;;;17.80;10.07;;;9.10;99.90;;;;;;5080238;28;20035;-73
2022/03/15 09:09:08;;;;;;;16.17;9.13;;;9.10;99.90;;;;;;5079480;28;20047;-73
2022/03/15 09:11:35;;;;;;;20.08;9.27;;;9.20;99.90;;;;;;5075020;27;20032;-73
2022/03/15 09:14:02;;;;;;;11.10;7.53;;;9.20;99.90;;;;;;5098040;27;20748;-73
2022/03/15 09:16:28;;;;;;;19.17;9.05;;;9.30;99.90;;;;;;5098054;27;20033;-74
2022/03/15 09:18:55;;;;;;;18.45;9.45;;;9.40;99.90;;;;;;5099709;27;20020;-73
2022/03/15 09:21:21;;;;;;;19.02;9.35;;;9.40;99.90;;;;;;5062741;27;20134;-73
2022/03/15 09:23:48;;;;;;;15.90;9.27;;;9.50;99.90;;;;;;5099433;27;20047;-74
2022/03/15 09:26:14;;;;;;;12.95;8.60;;;9.50;99.90;;;;;;5079784;28;20036;-74
2022/03/15 09:28:41;;;;;;;17.58;9.52;;;9.60;99.90;;;;;;5099000;27;20031;-74
2022/03/15 09:31:07;;;;;;;13.60;8.63;;;9.70;99.90;;;;;;5097779;27;20046;-74
2022/03/15 09:33:36;;;;;;;16.00;8.25;;;9.70;99.90;;;;;;5100788;27;20478;-74
2022/03/15 09:36:04;;;;;;;14.88;8.90;;;9.80;99.90;;;;;;5080935;28;20020;-74
2022/03/15 09:38:31;;;;;;;19.63;9.40;;;9.80;99.90;;;;;;5100363;27;20331;-73
2022/03/15 09:41:03;;;;;;;14.05;8.77;;;9.90;99.90;;;;;;5080036;27;20036;-74
2022/03/15 09:43:38;;;;;;;14.93;8.52;;;9.90;99.90;;;;;;5062954;27;20019;-74
2022/03/15 09:46:06;;;;;;;12.45;7.72;;;9.90;99.90;;;;;;5083426;27;20028;-74
2022/03/15 09:48:34;;;;;;;18.45;8.52;;;10.00;99.90;;;;;;5097874;27;20032;-73
2022/03/15 09:51:04;;;;;;;16.52;10.38;;;10.00;99.90;;;;;;5098918;27;20024;-74
2022/03/15 09:53:34;;;;;;;17.67;8.85;;;10.10;99.90;;;;;;5083793;27;20031;-73
2022/03/15 09:56:01;;;;;;;16.60;8.27;;;10.20;99.90;;;;;;5078397;27;20479;-73
2022/03/15 09:58:27;;;;;;;17.17;9.65;;;10.30;99.90;;;;;;5098711;27;20406;-73
2022/03/15 10:00:55;;;;;;;15.52;8.40;;;10.30;99.90;;;;;;5096802;27;20031;-73
2022/03/15 10:03:22;;;;;;;13.10;7.53;;;10.40;99.90;;;;;;5096565;27;20043;-74
2022/03/15 10:05:49;;;;;;;14.40;7.45;;;10.50;99.90;;;;;;5098853;27;20022;-73
2022/03/15 10:08:17;;;;;;;15.93;7.57;;;10.50;99.90;;;;;;5099492;27;20042;-73
2022/03/15 10:10:48;;;;;;;15.55;7.70;;;10.60;99.90;;;;;;5093633;27;20031;-74
2022/03/15 10:13:15;;;;;;;11.35;6.53;;;10.60;99.90;;;;;;5094922;27;20364;-74
2022/03/15 10:15:59;;;;;;;15.07;7.40;;;10.70;99.90;;;;;;5099380;27;20028;-74
2022/03/15 10:18:27;;;;;;;12.85;8.38;;;10.70;99.90;;;;;;5100305;27;20485;-75
2022/03/15 10:20:54;;;;;;;15.73;7.00;;;10.80;99.90;;;;;;5099464;27;20035;-73
2022/03/15 10:23:29;;;;;;;13.07;7.32;;;10.80;99.90;;;;;;5080170;27;20039;-73
2022/03/15 10:25:57;;;;;;;11.30;6.38;;;10.70;99.90;;;;;;5097646;27;20032;-74
2022/03/15 10:28:23;;;;;;;14.50;8.23;;;10.80;99.90;;;;;;5081322;27;20031;-74
2022/03/15 10:30:50;;;;;;;15.32;7.65;;;10.80;99.90;;;;;;5061812;27;23047;-74
2022/03/15 10:33:20;;;;;;;15.88;7.35;;;10.80;99.90;;;;;;5078251;27;20023;-74
2022/03/15 10:35:49;;;;;;;9.63;6.18;;;10.90;99.90;;;;;;5097035;27;20028;-74
2022/03/15 10:38:17;;;;;;;15.63;8.23;;;10.90;99.90;;;;;;5075840;27;20023;-75
2022/03/15 10:40:47;;;;;;;14.80;7.45;;;10.90;99.90;;;;;;5094669;27;20032;-75
2022/03/15 10:43:20;;;;;;;13.93;7.38;;;11.00;99.90;;;;;;5100120;27;20024;-74
2022/03/15 10:45:56;;;;;;;15.02;7.75;;;11.00;99.90;;;;;;5095577;28;20039;-74
2022/03/15 10:48:30;;;;;;;13.00;7.03;;;11.00;99.90;;;;;;5076091;28;20031;-74
2022/03/15 10:51:14;;;;;;;16.10;8.00;;;11.10;99.90;;;;;;5077595;28;20023;-74
2022/03/15 10:53:44;;;;;;;14.75;7.95;;;11.20;99.90;;;;;;5099218;27;20011;-74
2022/03/15 10:56:22;;;;;;;13.15;7.22;;;11.30;99.90;;;;;;5079224;28;20490;-74
2022/03/15 10:58:51;;;;;;;12.68;6.85;;;11.30;99.90;;;;;;5094553;27;20042;-73
2022/03/15 11:01:20;;;;;;;13.27;7.50;;;11.30;99.90;;;;;;5092451;27;20067;-74
2022/03/15 11:03:53;;;;;;;12.68;7.05;;;11.30;99.90;;;;;;5098928;27;20011;-75
2022/03/15 11:06:38;;;;;;;16.33;7.43;;;11.30;99.90;;;;;;5079008;28;20047;-74
2022/03/15 11:09:23;;;;;;;15.57;7.95;;;11.40;99.90;;;;;;5075695;28;20040;-74
2022/03/15 11:11:53;;;;;;;16.95;7.75;;;11.30;99.90;;;;;;5076961;28;20015;-74
2022/03/15 11:14:48;;;;;;;14.25;6.95;;;11.30;99.90;;;;;;5064287;28;20031;-74
2022/03/15 11:17:21;;;;;;;15.88;8.82;;;11.30;99.90;;;;;;5080254;28;20475;-74
2022/03/15 11:19:59;;;;;;;15.55;8.23;;;11.40;99.90;;;;;;5073343;28;20027;-75
2022/03/15 11:22:30;;;;;;;13.73;8.45;;;11.40;99.90;;;;;;5077307;28;20509;-75
2022/03/15 11:25:05;;;;;;;17.98;8.98;;;11.40;99.90;;;;;;5065348;28;20019;-75
2022/03/15 11:27:35;;;;;;;13.57;8.48;;;11.50;99.90;;;;;;5099419;27;20034;-73
2022/03/15 11:30:05;;;;;;;19.42;9.55;;;11.50;99.90;;;;;;5092669;28;20032;-76
2022/03/15 11:32:35;;;;;;;20.13;10.85;;;11.50;99.90;;;;;;5094405;28;20031;-73
2022/03/15 11:35:03;;;;;;;19.88;11.43;;;11.50;99.90;;;;;;5096831;27;20374;-73
2022/03/15 11:37:30;;;;;;;23.73;13.20;;;11.50;99.90;;;;;;5095690;28;20004;-73
2022/03/15 11:40:03;;;;;;;22.88;12.50;;;11.50;99.90;;;;;;5078508;28;20394;-74
2022/03/15 11:42:32;;;;;;;21.45;11.43;;;11.50;99.90;;;;;;5060791;28;20463;-73
2022/03/15 11:45:19;;;;;;;26.55;11.70;;;11.50;99.90;;;;;;5094159;28;20019;-74
2022/03/15 11:47:52;;;;;;;23.67;11.68;;;11.50;99.90;;;;;;5099940;28;20043;-74
2022/03/15 11:50:53;;;;;;;23.27;12.13;;;11.50;99.90;;;;;;5078821;28;20046;-73
2022/03/15 11:53:54;;;;;;;20.25;11.48;;;11.60;99.90;;;;;;5050348;28;20038;-74
2022/03/15 11:56:23;;;;;;;19.92;10.73;;;11.60;99.90;;;;;;5101850;27;20050;-74
2022/03/15 11:58:54;;;;;;;17.20;10.00;;;11.70;99.90;;;;;;5099106;27;20020;-74
2022/03/15 12:01:22;;;;;;;20.33;9.75;;;11.70;99.90;;;;;;5078962;28;20036;-74
2022/03/15 12:03:57;;;;;;;14.82;8.77;;;11.80;99.90;;;;;;5077092;28;20027;-74
2022/03/15 12:06:26;;;;;;;17.35;9.55;;;11.90;99.90;;;;;;5097773;27;20012;-74
2022/03/15 12:08:58;;;;;;;16.58;8.80;;;11.90;99.90;;;;;;5102463;27;20042;-74
2022/03/15 12:11:36;;;;;;;12.98;8.43;;;11.90;99.90;;;;;;5100422;27;20041;-74
2022/03/15 12:14:12;;;;;;;16.60;8.35;;;12.00;99.90;;;;;;5096712;27;20016;-74
2022/03/15 12:16:47;;;;;;;14.50;7.82;;;12.10;99.90;;;;;;5098899;27;20026;-74
2022/03/15 12:19:43;;;;;;;15.18;6.68;;;12.20;99.90;;;;;;5100048;27;20031;-74
2022/03/15 12:22:09;;;;;;;14.25;5.57;;;12.30;99.90;;;;;;5096574;27;20044;-74
2022/03/15 12:24:42;;;;;;;14.25;4.80;;;12.30;99.90;;;;;;5061193;28;20386;-74
2022/03/15 12:27:11;;;;;;;9.43;4.30;;;12.30;99.90;;;;;;5098381;27;20036;-74
2022/03/15 12:29:38;;;;;;;11.43;4.70;;;12.40;99.90;;;;;;5096468;27;20031;-74
2022/03/15 12:32:18;;;;;;;13.07;6.32;;;12.40;99.90;;;;;;5081561;27;20024;-74
2022/03/15 12:34:49;;;;;;;14.30;5.40;;;12.30;99.90;;;;;;5095499;27;20890;-74
2022/03/15 12:37:27;;;;;;;9.88;4.50;;;12.30;99.90;;;;;;5096189;27;20462;-74
2022/03/15 12:39:55;;;;;;;9.93;4.45;;;12.30;99.90;;;;;;5079889;27;20028;-74
2022/03/15 12:42:24;;;;;;;10.48;4.70;;;12.40;99.90;;;;;;5101894;27;20035;-74
2022/03/15 12:44:53;;;;;;;11.15;4.50;;;12.40;99.90;;;;;;5069708;28;20036;-74
2022/03/15 12:47:22;;;;;;;12.98;5.90;;;12.40;99.90;;;;;;5081313;28;20026;-74